Alfred Station, New York
Current Conditions -  °F | °C
As of 8:56 AM on Wednesday 28 Jan 2015 (Local Time) from KELZ Reporting Station
Clear Clear  
Wind Chill: -3°   Ceiling: Unl
Heat Index:   Visibility: 10mi
Dew Point:   Wind: 8mph
Humidity: 73%   Direction: 300°WNW
Pressure: 30.13"   Gusts: NA
Location:  42.27°N, 77.76°W
Report Text: KELZ 281356Z AUTO 30007KT 10SM CLR M13/M17 A3013 RMK AO2 SLP249 T11281167
Loading
Personal Weather Stations






























Interactive Weather Map New forecast layout! Learn more

10-Day Weather Forecast

Advertisements
Track Severe Weather on mobile